createdAt,value
2022-08-04T00:00:23.960Z,24.67
2022-08-04T00:03:25.043Z,24.66
2022-08-04T00:06:44.454Z,24.52
2022-08-04T00:09:35.836Z,24.58
2022-08-04T00:12:29.461Z,24.59
2022-08-04T00:15:18.164Z,24.61
2022-08-04T00:18:06.030Z,24.59
2022-08-04T00:20:56.012Z,24.53
2022-08-04T00:24:10.549Z,24.58
2022-08-04T00:26:53.875Z,24.58
2022-08-04T00:29:40.276Z,24.58
2022-08-04T00:32:34.479Z,24.59
2022-08-04T00:35:21.022Z,24.64
2022-08-04T00:38:08.792Z,24.63
2022-08-04T00:40:57.977Z,24.63
2022-08-04T00:44:02.497Z,24.59
2022-08-04T00:47:00.826Z,24.52
2022-08-04T00:50:05.636Z,24.65
2022-08-04T00:53:07.302Z,24.62
2022-08-04T00:56:12.283Z,24.55
2022-08-04T00:59:13.996Z,24.50
2022-08-04T01:02:07.142Z,24.46
2022-08-04T01:04:56.114Z,24.42
2022-08-04T01:08:13.508Z,24.41
2022-08-04T01:11:57.008Z,24.40
2022-08-04T01:15:10.641Z,24.38
2022-08-04T01:18:06.474Z,24.38
2022-08-04T01:21:02.887Z,24.15
2022-08-04T01:24:16.446Z,24.28
2022-08-04T01:27:14.294Z,24.22
2022-08-04T01:30:00.306Z,24.29
2022-08-04T01:32:54.215Z,24.03
2022-08-04T01:35:49.344Z,24.22
2022-08-04T01:38:37.376Z,24.16
2022-08-04T01:41:32.580Z,24.21
2022-08-04T01:44:19.650Z,24.17
2022-08-04T01:47:07.390Z,24.14
2022-08-04T01:49:55.058Z,24.18
2022-08-04T01:52:45.523Z,24.16
2022-08-04T01:55:54.236Z,24.09
2022-08-04T01:58:41.846Z,24.05
2022-08-04T02:01:28.042Z,23.86
2022-08-04T02:04:23.439Z,23.88
2022-08-04T02:07:33.834Z,23.93
2022-08-04T02:10:41.879Z,23.88
2022-08-04T02:13:40.142Z,23.74
2022-08-04T02:16:52.249Z,23.88
2022-08-04T02:20:09.189Z,23.73
2022-08-04T02:22:59.178Z,23.95
2022-08-04T02:25:58.571Z,23.81
2022-08-04T02:28:55.391Z,23.84
2022-08-04T02:32:00.614Z,23.95
2022-08-04T02:34:55.356Z,23.88
2022-08-04T02:37:48.213Z,23.86
2022-08-04T02:40:34.774Z,23.87
2022-08-04T02:43:50.138Z,23.89
2022-08-04T02:46:28.257Z,23.84
2022-08-04T02:49:15.134Z,23.82
2022-08-04T02:52:01.601Z,23.79
2022-08-04T02:54:51.701Z,23.77
2022-08-04T02:57:38.159Z,23.70
2022-08-04T03:00:24.412Z,23.72
2022-08-04T03:03:21.662Z,23.74
2022-08-04T03:06:11.485Z,23.73
2022-08-04T03:09:16.852Z,23.68
2022-08-04T03:12:13.383Z,23.64
2022-08-04T03:15:27.637Z,23.59
2022-08-04T03:18:22.587Z,23.56
2022-08-04T03:21:14.770Z,23.62
2022-08-04T03:24:25.232Z,23.46
2022-08-04T03:27:16.385Z,23.52
2022-08-04T03:30:14.472Z,23.49
2022-08-04T03:33:20.401Z,23.46
2022-08-04T03:36:31.853Z,23.42
2022-08-04T03:39:36.599Z,23.48
2022-08-04T03:42:22.429Z,23.46
2022-08-04T03:45:24.476Z,23.34
2022-08-04T03:48:19.391Z,23.44
2022-08-04T03:51:36.526Z,23.31
2022-08-04T03:54:44.734Z,23.33
2022-08-04T03:57:42.565Z,23.25
2022-08-04T04:00:40.970Z,23.27
2022-08-04T04:03:45.829Z,23.37
2022-08-04T04:06:54.217Z,23.30
2022-08-04T04:10:15.650Z,23.25
2022-08-04T04:13:15.930Z,23.21
2022-08-04T04:16:13.988Z,23.31
2022-08-04T04:19:37.770Z,23.25
2022-08-04T04:22:42.174Z,23.28
2022-08-04T04:26:21.921Z,23.21
2022-08-04T04:29:19.498Z,23.24
2022-08-04T04:32:29.001Z,23.24
2022-08-04T04:35:54.273Z,23.23
2022-08-04T04:39:11.425Z,23.23
2022-08-04T04:42:22.264Z,23.24
2022-08-04T04:45:25.154Z,23.13
2022-08-04T04:48:29.792Z,23.04
2022-08-04T04:51:24.327Z,22.87
2022-08-04T04:54:16.360Z,23.24
2022-08-04T04:57:08.191Z,23.20
2022-08-04T04:59:57.410Z,23.24
2022-08-04T05:03:17.682Z,23.20
2022-08-04T05:06:30.548Z,23.20
2022-08-04T05:09:35.390Z,23.14
2022-08-04T05:14:32.460Z,23.34
2022-08-04T05:15:36.293Z,23.44
2022-08-04T05:18:27.497Z,23.33
2022-08-04T05:21:34.159Z,23.43
2022-08-04T05:24:22.509Z,23.58
2022-08-04T05:27:30.032Z,23.55
2022-08-04T05:30:15.890Z,23.66
2022-08-04T05:33:09.903Z,23.72
2022-08-04T05:36:18.590Z,23.66
2022-08-04T05:39:08.010Z,23.74
2022-08-04T05:41:58.547Z,23.81
2022-08-04T05:44:51.399Z,23.85
2022-08-04T05:47:37.925Z,23.96
2022-08-04T05:50:24.865Z,24.00
2022-08-04T05:53:11.630Z,24.03
2022-08-04T05:55:59.986Z,24.11
2022-08-04T05:58:46.577Z,24.18
2022-08-04T06:01:33.513Z,24.11
2022-08-04T06:04:41.471Z,24.24
2022-08-04T06:07:27.910Z,24.16
2022-08-04T06:10:14.100Z,24.26
2022-08-04T06:13:03.842Z,24.28
2022-08-04T06:15:51.035Z,24.27
2022-08-04T06:20:03.830Z,24.40
2022-08-04T06:21:46.144Z,23.83
2022-08-04T06:24:33.300Z,24.25
2022-08-04T06:27:20.382Z,24.47
2022-08-04T06:30:14.001Z,24.54
2022-08-04T06:33:13.437Z,24.58
2022-08-04T06:36:01.887Z,24.66
2022-08-04T06:38:52.095Z,24.72
2022-08-04T06:42:17.509Z,24.78
2022-08-04T06:44:59.162Z,24.84
2022-08-04T06:47:46.093Z,24.91
2022-08-04T06:51:30.390Z,24.98
2022-08-04T06:53:40.333Z,24.97
2022-08-04T06:56:26.404Z,25.15
2022-08-04T07:06:43.906Z,24.43
2022-08-04T07:09:31.261Z,24.71
2022-08-04T07:12:21.557Z,24.75
2022-08-04T07:15:08.561Z,25.01
2022-08-04T07:18:02.006Z,25.16
2022-08-04T07:20:49.003Z,25.39
2022-08-04T07:23:35.355Z,25.56
2022-08-04T07:26:27.353Z,25.64
2022-08-04T07:29:15.663Z,25.78
2022-08-04T07:32:05.229Z,25.93
2022-08-04T07:34:51.772Z,25.95
2022-08-04T07:37:39.361Z,25.19
2022-08-04T07:40:26.390Z,25.77
2022-08-04T07:43:12.417Z,26.12
2022-08-04T07:45:59.024Z,26.20
2022-08-04T07:48:45.578Z,26.39
2022-08-04T07:51:32.326Z,26.43
2022-08-04T07:54:18.620Z,26.50
2022-08-04T07:57:04.596Z,26.55
2022-08-04T07:59:50.635Z,26.11
2022-08-04T08:02:37.229Z,26.53
2022-08-04T08:05:23.424Z,26.69
2022-08-04T08:08:10.959Z,26.79
2022-08-04T08:10:57.284Z,26.49
2022-08-04T08:13:45.024Z,26.88
2022-08-04T08:16:33.706Z,27.00
2022-08-04T08:19:20.347Z,26.81
2022-08-04T08:22:06.634Z,26.81
2022-08-04T08:24:52.988Z,27.01
2022-08-04T08:27:39.162Z,27.26
2022-08-04T08:30:41.879Z,27.20
2022-08-04T08:33:28.350Z,27.39
2022-08-04T08:36:35.267Z,27.42
2022-08-04T08:39:29.443Z,27.60
2022-08-04T08:42:23.080Z,27.61
2022-08-04T08:45:30.277Z,27.09
2022-08-04T08:48:37.520Z,27.64
2022-08-04T08:51:36.160Z,27.70
2022-08-04T08:54:45.008Z,27.84
2022-08-04T08:57:44.004Z,27.96
2022-08-04T09:01:06.060Z,28.07
2022-08-04T09:04:23.835Z,28.01
2022-08-04T09:07:19.939Z,28.12
2022-08-04T09:10:40.177Z,28.23
2022-08-04T09:13:51.146Z,28.32
2022-08-04T09:16:43.332Z,28.53
2022-08-04T09:19:38.066Z,28.53
2022-08-04T09:22:45.616Z,28.72
2022-08-04T09:25:41.493Z,28.85
2022-08-04T09:28:52.758Z,28.91
2022-08-04T09:32:06.318Z,29.04
2022-08-04T09:35:16.256Z,29.25
2022-08-04T09:38:28.838Z,29.32
2022-08-04T09:41:52.846Z,29.25
2022-08-04T09:45:04.909Z,29.23
2022-08-04T09:48:21.901Z,29.43
2022-08-04T09:51:17.337Z,29.43
2022-08-04T09:54:30.588Z,29.40
2022-08-04T09:57:39.332Z,29.34
2022-08-04T10:00:40.405Z,29.39
2022-08-04T10:03:31.840Z,29.41
2022-08-04T10:06:42.400Z,29.39
2022-08-04T10:10:06.345Z,29.39
2022-08-04T10:13:08.688Z,29.54
2022-08-04T10:16:12.119Z,29.73
2022-08-04T10:19:31.724Z,29.79
2022-08-04T10:22:44.670Z,29.91
2022-08-04T10:26:06.837Z,29.94
2022-08-04T10:29:01.269Z,30.08
2022-08-04T10:32:03.703Z,30.06
2022-08-04T10:35:05.135Z,30.07
2022-08-04T10:38:18.337Z,30.13
2022-08-04T10:41:21.991Z,30.11
2022-08-04T10:44:42.236Z,30.03
2022-08-04T10:47:35.494Z,30.25
2022-08-04T10:50:24.817Z,30.25
2022-08-04T10:53:14.436Z,30.32
2022-08-04T10:56:09.829Z,30.27
2022-08-04T10:59:01.511Z,30.48
2022-08-04T11:02:01.518Z,30.45
2022-08-04T11:05:00.136Z,30.35
2022-08-04T11:07:50.884Z,30.50
2022-08-04T11:10:46.239Z,30.72
2022-08-04T11:52:06.969Z,29.55
2022-08-04T11:54:54.920Z,29.78
2022-08-04T11:57:41.710Z,30.03
2022-08-04T12:00:30.292Z,30.45
2022-08-04T12:03:16.102Z,30.68
2022-08-04T12:06:11.310Z,30.85
2022-08-04T12:09:03.916Z,30.91
2022-08-04T12:12:23.734Z,31.31
2022-08-04T12:15:24.234Z,31.56
2022-08-04T12:18:40.031Z,31.75
2022-08-04T12:21:32.059Z,31.87
2022-08-04T12:24:22.527Z,32.00
2022-08-04T12:27:31.875Z,32.12
2022-08-04T12:30:57.556Z,32.28
2022-08-04T12:34:05.349Z,32.26
2022-08-04T12:37:03.609Z,32.38
2022-08-04T12:40:28.750Z,32.38
2022-08-04T12:43:09.278Z,32.39
2022-08-04T12:46:04.085Z,32.39
2022-08-04T12:48:50.654Z,32.39
2022-08-04T12:52:07.586Z,32.38
2022-08-04T12:54:51.417Z,32.35
2022-08-04T12:57:37.982Z,32.44
2022-08-04T13:00:33.146Z,32.46
2022-08-04T13:03:24.444Z,32.55
2022-08-04T13:06:12.347Z,32.63
2022-08-04T13:09:26.922Z,32.59
2022-08-04T13:12:23.060Z,32.68
2022-08-04T13:15:18.177Z,33.02
2022-08-04T13:18:14.713Z,32.89
2022-08-04T13:21:21.200Z,33.31
2022-08-04T13:24:21.359Z,33.36
2022-08-04T13:27:17.574Z,33.35
2022-08-04T13:30:04.219Z,33.44
2022-08-04T13:32:58.117Z,33.41
2022-08-04T13:35:55.324Z,33.64
2022-08-04T13:38:50.917Z,33.61
2022-08-04T13:41:40.948Z,33.79
2022-08-04T13:44:33.120Z,33.95
2022-08-04T13:47:31.840Z,33.96
2022-08-04T13:50:20.846Z,34.15
2022-08-04T13:53:06.581Z,34.23
2022-08-04T13:56:00.477Z,34.25
2022-08-04T13:58:48.051Z,34.27
2022-08-04T14:01:36.291Z,34.31
2022-08-04T14:04:25.059Z,34.29
2022-08-04T14:07:18.022Z,34.51
2022-08-04T14:10:14.475Z,34.60
2022-08-04T14:13:04.863Z,34.68
2022-08-04T14:16:02.540Z,34.87
2022-08-04T14:18:59.957Z,35.03
2022-08-04T14:21:46.047Z,35.24
2022-08-04T14:24:32.106Z,35.51
2022-08-04T14:27:18.305Z,35.62
2022-08-04T14:30:04.574Z,35.88
2022-08-04T14:34:00.474Z,36.03
2022-08-04T14:36:15.763Z,36.20
2022-08-04T14:39:01.879Z,36.39
2022-08-04T14:41:49.134Z,36.47
2022-08-04T14:44:55.896Z,36.60
2022-08-04T14:47:52.943Z,36.83
2022-08-04T14:50:44.176Z,36.94
2022-08-04T14:53:29.938Z,37.01
2022-08-04T14:56:37.570Z,37.24
2022-08-04T14:59:22.727Z,37.22
2022-08-04T15:02:09.351Z,37.29
2022-08-04T15:04:55.675Z,37.42
2022-08-04T15:07:41.853Z,37.54
2022-08-04T15:10:28.152Z,37.57
2022-08-04T15:13:14.538Z,37.65
2022-08-04T15:16:06.995Z,37.70
2022-08-04T15:18:55.061Z,37.72
2022-08-04T15:21:43.328Z,37.76
2022-08-04T15:24:29.070Z,37.72
2022-08-04T15:27:16.126Z,37.65
2022-08-04T15:30:04.785Z,37.68
2022-08-04T15:32:53.617Z,37.65
2022-08-04T15:35:40.921Z,37.55
2022-08-04T15:38:38.484Z,37.45
2022-08-04T15:41:32.145Z,37.46
2022-08-04T15:44:50.495Z,37.35
2022-08-04T15:47:36.587Z,37.21
2022-08-04T15:50:27.934Z,37.12
2022-08-04T15:53:14.395Z,36.85
2022-08-04T15:56:27.787Z,36.72
2022-08-04T15:59:14.278Z,36.57
2022-08-04T16:02:32.288Z,36.31
2022-08-04T16:05:21.485Z,36.23
2022-08-04T16:08:12.672Z,36.18
2022-08-04T16:10:58.992Z,36.04
2022-08-04T16:14:06.621Z,35.86
2022-08-04T16:16:52.531Z,35.73
2022-08-04T16:19:41.466Z,35.66
2022-08-04T16:22:39.630Z,35.48
2022-08-04T16:25:48.279Z,35.26
2022-08-04T16:28:40.935Z,35.17
2022-08-04T16:31:26.844Z,34.99
2022-08-04T16:34:49.044Z,34.95
2022-08-04T16:37:20.570Z,34.83
2022-08-04T16:40:33.278Z,34.59
2022-08-04T16:43:22.995Z,34.52
2022-08-04T16:46:18.417Z,34.27
2022-08-04T16:49:07.741Z,34.25
2022-08-04T16:51:55.038Z,34.16
2022-08-04T16:54:41.591Z,34.01
2022-08-04T16:57:27.899Z,33.93
2022-08-04T17:00:14.751Z,33.79
2022-08-04T17:03:05.689Z,33.71
2022-08-04T17:06:06.502Z,33.54
2022-08-04T17:08:52.704Z,33.49
2022-08-04T17:11:38.752Z,33.34
2022-08-04T17:14:27.674Z,33.24
2022-08-04T17:17:13.565Z,33.01
2022-08-04T17:19:59.643Z,33.08
2022-08-04T17:22:45.579Z,32.95
2022-08-04T17:25:52.003Z,32.61
2022-08-04T17:28:47.422Z,32.67
2022-08-04T17:31:35.865Z,32.67
2022-08-04T17:34:22.040Z,32.61
2022-08-04T17:37:38.462Z,32.51
2022-08-04T17:44:04.223Z,32.29
2022-08-04T17:46:52.995Z,32.17
2022-08-04T17:49:52.948Z,32.01
2022-08-04T17:52:44.484Z,32.07
2022-08-04T17:55:47.025Z,31.99
2022-08-04T17:58:33.468Z,31.81
2022-08-04T18:01:26.228Z,31.86
2022-08-04T18:04:34.674Z,31.63
2022-08-04T18:08:34.748Z,31.57
2022-08-04T18:10:51.583Z,31.25
2022-08-04T18:13:43.362Z,31.53
2022-08-04T18:16:29.920Z,31.48
2022-08-04T18:19:18.968Z,31.46
2022-08-04T18:22:09.062Z,31.37
2022-08-04T18:25:04.156Z,31.34
2022-08-04T18:27:55.570Z,31.26
2022-08-04T18:33:59.022Z,31.14
2022-08-04T18:36:55.431Z,31.06
2022-08-04T18:40:10.690Z,31.00
2022-08-04T18:42:50.432Z,30.95
2022-08-04T18:45:36.702Z,30.82
2022-08-04T18:48:23.064Z,30.74
2022-08-04T18:51:24.906Z,30.71
2022-08-04T18:54:11.702Z,30.72
2022-08-04T18:57:24.477Z,30.56
2022-08-04T19:00:05.005Z,30.54
2022-08-04T19:02:51.438Z,30.49
2022-08-04T19:05:38.227Z,30.42
2022-08-04T19:08:33.040Z,30.35
2022-08-04T19:11:38.639Z,30.31
2022-08-04T19:14:28.341Z,30.23
2022-08-04T19:17:14.716Z,30.15
2022-08-04T19:20:25.551Z,30.10
2022-08-04T19:24:10.837Z,29.95
2022-08-04T19:26:36.601Z,29.96
2022-08-04T19:29:22.722Z,29.77
2022-08-04T19:32:15.184Z,29.80
2022-08-04T19:35:01.949Z,29.73
2022-08-04T19:37:58.258Z,29.67
2022-08-04T19:40:52.393Z,29.49
2022-08-04T19:43:43.563Z,29.55
2022-08-04T19:46:29.997Z,29.51
2022-08-04T19:50:03.045Z,29.42
2022-08-04T19:52:33.832Z,29.36
2022-08-04T19:55:22.762Z,29.32
2022-08-04T19:58:25.920Z,29.09
2022-08-04T20:01:31.226Z,29.18
2022-08-04T20:04:19.589Z,29.09
2022-08-04T20:07:08.730Z,28.98
2022-08-04T20:10:04.262Z,28.93
2022-08-04T20:12:55.586Z,28.84
2022-08-04T20:15:58.000Z,28.77
2022-08-04T20:18:55.455Z,28.56
2022-08-04T20:21:55.090Z,28.58
2022-08-04T20:24:49.258Z,28.38
2022-08-04T20:27:51.740Z,28.40
2022-08-04T20:30:45.768Z,28.30
2022-08-04T20:33:31.832Z,28.21
2022-08-04T20:36:21.170Z,28.20
2022-08-04T20:39:09.850Z,28.10
2022-08-04T20:41:56.401Z,28.03
2022-08-04T20:44:46.910Z,27.92
2022-08-04T20:47:35.361Z,27.81
2022-08-04T20:50:29.855Z,27.73
2022-08-04T20:53:17.383Z,27.69
2022-08-04T20:56:03.578Z,27.62
2022-08-04T20:58:52.737Z,27.47
2022-08-04T21:01:39.764Z,27.54
2022-08-04T21:04:31.722Z,27.47
2022-08-04T21:07:18.431Z,27.39
2022-08-04T21:10:05.015Z,27.43
2022-08-04T21:12:51.829Z,27.43
2022-08-04T21:15:57.757Z,27.26
2022-08-04T21:18:45.192Z,27.22
2022-08-04T21:21:35.592Z,27.09
2022-08-04T21:24:26.258Z,27.08
2022-08-04T21:27:13.039Z,27.04
2022-08-04T21:30:00.002Z,27.02
2022-08-04T21:32:45.762Z,26.96
2022-08-04T21:35:38.295Z,26.92
2022-08-04T21:38:28.210Z,26.86
2022-08-04T21:41:24.473Z,26.82
2022-08-04T21:44:12.974Z,26.75
2022-08-04T21:46:59.055Z,26.68
2022-08-04T21:49:55.869Z,26.65
2022-08-04T21:52:43.405Z,26.51
2022-08-04T21:56:04.798Z,26.57
2022-08-04T21:58:38.154Z,26.47
2022-08-04T22:01:50.515Z,26.44
2022-08-04T22:04:30.995Z,26.41
2022-08-04T22:07:17.497Z,26.25
2022-08-04T22:10:09.297Z,26.33
2022-08-04T22:12:55.814Z,26.28
2022-08-04T22:16:05.367Z,26.13
2022-08-04T22:18:50.990Z,26.19
2022-08-04T22:21:46.541Z,26.08
2022-08-04T22:24:32.588Z,25.99
2022-08-04T22:27:36.961Z,25.99
2022-08-04T22:30:24.113Z,25.93
2022-08-04T22:33:10.490Z,25.77
2022-08-04T22:35:57.906Z,25.82
2022-08-04T22:38:48.628Z,25.77
2022-08-04T22:41:48.808Z,25.74
2022-08-04T22:44:43.200Z,25.61
2022-08-04T22:47:30.430Z,25.60
2022-08-04T22:50:27.621Z,25.50
2022-08-04T22:53:18.062Z,25.50
2022-08-04T22:56:09.665Z,25.42
2022-08-04T22:58:56.960Z,25.37
2022-08-04T23:01:59.014Z,25.36
2022-08-04T23:04:49.954Z,25.26
2022-08-04T23:07:49.015Z,25.14
2022-08-04T23:10:36.282Z,25.13
2022-08-04T23:13:22.630Z,25.10
2022-08-04T23:16:10.388Z,25.07
2022-08-04T23:18:56.841Z,25.02
2022-08-04T23:21:47.264Z,25.01
2022-08-04T23:24:34.596Z,24.86
2022-08-04T23:27:20.816Z,24.88
2022-08-04T23:30:07.647Z,24.85
2022-08-04T23:32:53.844Z,24.73
2022-08-04T23:35:39.928Z,24.72
2022-08-04T23:38:31.376Z,24.72
2022-08-04T23:41:18.776Z,24.53
2022-08-04T23:44:06.041Z,24.59
2022-08-04T23:47:03.282Z,24.52
2022-08-04T23:49:49.551Z,24.43
2022-08-04T23:52:35.376Z,24.47
2022-08-04T23:55:21.460Z,24.47
2022-08-04T23:58:18.818Z,24.44
